Time;durP1;ratioP1;P1;durP2;ratioP2;P2;SDS_P1;SDS_P2;PMS_P1;PMS_P2;Temp;Humidity;BMP_temperature;BMP_pressure;BME280_temperature;BME280_humidity;BME280_pressure;Samples;Min_cycle;Max_cycle;Signal;HPM_P1;HPM_P2
2023/09/21 00:00:11;;;;;;;0.00;0.00;;;17.70;1.00;;;;;;5119398;27;20090;-73
2023/09/21 00:02:37;;;;;;;0.00;0.00;;;17.70;1.00;;;;;;5127583;27;20035;-74
2023/09/21 00:05:03;;;;;;;0.00;0.00;;;17.70;1.00;;;;;;5127516;27;20554;-74
2023/09/21 00:07:29;;;;;;;0.00;0.00;;;17.70;1.00;;;;;;5124178;27;20039;-74
2023/09/21 00:09:54;;;;;;;0.03;0.03;;;17.60;1.00;;;;;;5123604;27;20469;-73
2023/09/21 00:12:20;;;;;;;0.60;0.60;;;17.60;1.00;;;;;;5125416;27;20051;-74
2023/09/21 00:14:46;;;;;;;0.70;0.47;;;17.70;1.00;;;;;;5108861;27;20031;-73
2023/09/21 00:17:16;;;;;;;0.05;0.05;;;17.70;1.00;;;;;;5127105;27;20035;-74
2023/09/21 00:19:44;;;;;;;0.00;0.00;;;17.60;1.00;;;;;;5116195;27;20161;-73
2023/09/21 00:22:10;;;;;;;0.00;0.00;;;17.60;1.00;;;;;;5123016;27;20043;-72
2023/09/21 00:24:37;;;;;;;0.00;0.00;;;17.60;1.00;;;;;;5124962;27;20043;-72
2023/09/21 00:27:03;;;;;;;0.43;0.43;;;17.50;1.00;;;;;;5124034;27;20049;-75
2023/09/21 00:29:30;;;;;;;0.00;0.00;;;17.60;1.00;;;;;;5126203;27;20118;-72
2023/09/21 00:31:57;;;;;;;0.65;0.55;;;17.50;1.00;;;;;;5123988;27;20353;-72
2023/09/21 00:34:24;;;;;;;0.22;0.17;;;17.50;1.00;;;;;;5123862;27;20097;-72
2023/09/21 00:36:50;;;;;;;0.30;0.30;;;17.60;1.00;;;;;;5125399;27;20050;-73
2023/09/21 00:39:17;;;;;;;0.32;0.15;;;17.70;1.00;;;;;;5126800;27;20031;-73
2023/09/21 00:41:43;;;;;;;0.00;0.00;;;17.80;1.00;;;;;;5126891;27;20595;-73
2023/09/21 00:44:09;;;;;;;0.28;0.22;;;17.90;1.00;;;;;;5126674;27;20121;-72
2023/09/21 00:46:38;;;;;;;0.00;0.00;;;17.80;1.00;;;;;;5118557;27;20435;-73
2023/09/21 00:49:05;;;;;;;0.77;0.45;;;18.00;1.00;;;;;;5126635;27;20044;-73
2023/09/21 00:51:33;;;;;;;0.00;0.00;;;18.00;99.90;;;;;;5126778;27;20080;-73
2023/09/21 00:54:00;;;;;;;0.30;0.25;;;17.90;99.90;;;;;;5124571;27;20055;-73
2023/09/21 00:56:27;;;;;;;0.30;0.28;;;17.80;99.90;;;;;;5121501;27;20028;-72
2023/09/21 00:58:57;;;;;;;0.68;0.63;;;17.70;99.90;;;;;;5122935;27;20051;-73
2023/09/21 01:01:27;;;;;;;0.00;0.00;;;17.70;99.90;;;;;;5114846;27;20545;-73
2023/09/21 01:03:53;;;;;;;1.88;0.63;;;17.60;1.00;;;;;;5122900;27;20118;-73
2023/09/21 01:06:19;;;;;;;0.22;0.22;;;17.60;1.00;;;;;;5125248;27;20035;-73
2023/09/21 01:08:45;;;;;;;0.43;0.32;;;17.70;99.90;;;;;;5118725;27;20039;-73
2023/09/21 01:11:11;;;;;;;0.95;0.25;;;17.70;99.90;;;;;;5123437;27;20039;-73
2023/09/21 01:13:37;;;;;;;0.00;0.00;;;17.70;99.90;;;;;;5121368;27;20035;-72
2023/09/21 01:16:05;;;;;;;0.57;0.38;;;17.70;99.90;;;;;;5123047;27;20039;-73
2023/09/21 01:18:31;;;;;;;0.32;0.22;;;17.70;99.90;;;;;;5128556;27;20031;-73
2023/09/21 01:21:04;;;;;;;0.13;0.13;;;18.00;99.90;;;;;;5122977;27;20044;-73
2023/09/21 01:23:52;;;;;;;0.47;0.45;;;17.90;99.90;;;;;;5124331;27;20044;-73
2023/09/21 01:26:19;;;;;;;0.75;0.35;;;17.80;99.90;;;;;;5124194;27;20069;-73
2023/09/21 01:28:49;;;;;;;0.20;0.20;;;18.00;99.90;;;;;;5124832;27;20032;-73
2023/09/21 01:31:16;;;;;;;0.63;0.30;;;18.00;99.90;;;;;;5122818;27;20035;-73
2023/09/21 01:33:42;;;;;;;0.13;0.13;;;18.10;99.90;;;;;;5124327;27;20046;-73
2023/09/21 01:36:09;;;;;;;0.20;0.20;;;18.00;99.90;;;;;;5125712;28;20035;-73
2023/09/21 01:38:35;;;;;;;0.25;0.10;;;17.90;99.90;;;;;;5122210;27;20451;-73
2023/09/21 01:41:01;;;;;;;1.20;0.45;;;17.80;99.90;;;;;;5122670;28;20069;-72
2023/09/21 01:43:27;;;;;;;0.00;0.00;;;17.90;99.90;;;;;;5122440;27;20039;-72
2023/09/21 01:45:53;;;;;;;0.65;0.47;;;18.00;99.90;;;;;;5129194;28;20107;-73
2023/09/21 01:48:19;;;;;;;0.40;0.32;;;18.00;99.90;;;;;;5121609;28;20043;-73
2023/09/21 01:50:47;;;;;;;0.25;0.22;;;18.00;99.90;;;;;;5122509;28;20491;-73
2023/09/21 01:53:17;;;;;;;0.13;0.13;;;18.00;99.90;;;;;;5113728;28;20048;-73
2023/09/21 01:55:44;;;;;;;0.10;0.10;;;18.20;99.90;;;;;;5125856;27;20472;-72
2023/09/21 01:58:11;;;;;;;0.00;0.00;;;18.20;99.90;;;;;;5123442;27;20078;-72
2023/09/21 02:00:46;;;;;;;0.00;0.00;;;18.30;99.90;;;;;;5122333;28;20097;-73
2023/09/21 02:03:13;;;;;;;2.80;0.53;;;18.20;99.90;;;;;;5131101;28;20042;-73
2023/09/21 02:05:40;;;;;;;1.23;0.13;;;18.20;99.90;;;;;;5122792;28;20280;-73
2023/09/21 02:08:07;;;;;;;0.03;0.03;;;18.30;99.90;;;;;;5125353;27;20078;-73
2023/09/21 02:10:34;;;;;;;1.55;0.85;;;18.40;99.90;;;;;;5122551;28;20046;-73
2023/09/21 02:13:01;;;;;;;1.60;0.98;;;18.40;99.90;;;;;;5122398;28;20704;-73
2023/09/21 02:15:27;;;;;;;0.65;0.47;;;18.30;99.90;;;;;;5125633;27;20051;-73
2023/09/21 02:17:55;;;;;;;0.00;0.00;;;18.30;99.90;;;;;;5129630;27;20050;-73
2023/09/21 02:20:24;;;;;;;0.38;0.35;;;18.20;99.90;;;;;;5128315;27;20051;-72
2023/09/21 02:22:52;;;;;;;0.45;0.00;;;18.20;99.90;;;;;;5119759;27;20113;-73
2023/09/21 02:25:19;;;;;;;0.28;0.17;;;18.30;99.90;;;;;;5126292;27;20110;-72
2023/09/21 02:27:49;;;;;;;0.20;0.20;;;18.10;99.90;;;;;;5129253;27;20071;-72
2023/09/21 02:30:17;;;;;;;0.10;0.00;;;18.10;99.90;;;;;;5129284;27;20125;-72
2023/09/21 02:32:49;;;;;;;0.52;0.30;;;18.10;99.90;;;;;;5126269;27;20035;-72
2023/09/21 02:35:30;;;;;;;1.75;0.77;;;18.20;99.90;;;;;;5126074;27;20039;-72
2023/09/21 02:37:56;;;;;;;0.13;0.13;;;18.10;99.90;;;;;;5128822;27;20031;-72
2023/09/21 02:40:23;;;;;;;0.38;0.30;;;18.00;99.90;;;;;;5128833;27;20058;-74
2023/09/21 02:42:51;;;;;;;0.00;0.00;;;18.00;99.90;;;;;;5126289;27;20416;-73
2023/09/21 02:45:18;;;;;;;0.00;0.00;;;17.90;99.90;;;;;;5125621;27;20047;-72
2023/09/21 02:47:46;;;;;;;1.17;0.52;;;18.00;99.90;;;;;;5125984;27;20051;-72
2023/09/21 02:50:20;;;;;;;0.10;0.10;;;18.10;99.90;;;;;;5128823;27;20507;-72
2023/09/21 02:52:47;;;;;;;0.28;0.28;;;18.40;99.90;;;;;;5128067;27;20086;-72
2023/09/21 02:55:16;;;;;;;0.88;0.50;;;18.20;99.90;;;;;;5120404;27;20039;-73
2023/09/21 02:57:43;;;;;;;0.10;0.10;;;18.10;99.90;;;;;;5128407;27;20057;-73
2023/09/21 03:00:21;;;;;;;0.65;0.40;;;18.00;99.90;;;;;;5126690;27;20050;-72
2023/09/21 03:02:48;;;;;;;0.55;0.45;;;18.00;99.90;;;;;;5125067;27;20500;-73
2023/09/21 03:05:16;;;;;;;1.27;0.85;;;18.00;99.90;;;;;;5126260;27;20035;-72
2023/09/21 03:07:43;;;;;;;0.10;0.10;;;17.90;99.90;;;;;;5125007;27;20544;-73
2023/09/21 03:10:10;;;;;;;0.13;0.13;;;17.90;99.90;;;;;;5125820;27;20435;-73
2023/09/21 03:12:38;;;;;;;0.75;0.40;;;17.80;99.90;;;;;;5127804;27;20492;-73
2023/09/21 03:15:16;;;;;;;0.55;0.55;;;18.00;99.90;;;;;;5128563;27;20057;-73
2023/09/21 03:17:42;;;;;;;0.00;0.00;;;18.10;99.90;;;;;;5117608;27;20039;-73
2023/09/21 03:20:11;;;;;;;0.47;0.47;;;17.90;99.90;;;;;;5125194;27;20087;-73
2023/09/21 03:22:37;;;;;;;0.00;0.00;;;17.90;99.90;;;;;;5132413;27;20044;-73
2023/09/21 03:25:04;;;;;;;1.02;0.40;;;17.80;99.90;;;;;;5125142;27;20040;-73
2023/09/21 03:27:30;;;;;;;0.20;0.08;;;17.70;99.90;;;;;;5125803;27;20130;-73
2023/09/21 03:29:55;;;;;;;0.17;0.17;;;17.70;99.90;;;;;;5127950;27;20058;-73
2023/09/21 03:32:21;;;;;;;0.65;0.15;;;17.60;99.90;;;;;;5127185;27;20503;-74
2023/09/21 03:34:46;;;;;;;0.00;0.00;;;17.50;99.90;;;;;;5125796;27;20042;-74
2023/09/21 03:37:13;;;;;;;0.00;0.00;;;17.40;99.90;;;;;;5124848;27;20043;-75
2023/09/21 03:39:39;;;;;;;0.00;0.00;;;17.40;99.90;;;;;;5125633;27;20047;-73
2023/09/21 03:42:05;;;;;;;0.03;0.00;;;17.40;99.90;;;;;;5127721;27;20035;-73
2023/09/21 03:44:31;;;;;;;1.67;0.52;;;17.30;99.90;;;;;;5128095;27;20473;-73
2023/09/21 03:46:57;;;;;;;0.08;0.05;;;17.20;99.90;;;;;;5127974;27;20036;-73
2023/09/21 03:49:23;;;;;;;0.00;0.00;;;17.00;1.00;;;;;;5128025;27;20069;-72
2023/09/21 03:51:48;;;;;;;0.00;0.00;;;17.10;1.00;;;;;;5120864;27;20086;-74
2023/09/21 03:54:15;;;;;;;0.13;0.13;;;17.30;1.00;;;;;;5125601;27;20047;-73
2023/09/21 03:56:41;;;;;;;0.43;0.35;;;17.20;1.00;;;;;;5127782;27;20536;-73
2023/09/21 03:59:07;;;;;;;0.00;0.00;;;17.20;1.00;;;;;;5125681;27;20134;-74
2023/09/21 04:01:37;;;;;;;0.40;0.22;;;17.30;1.00;;;;;;5124118;27;20031;-73
2023/09/21 04:04:09;;;;;;;0.03;0.03;;;17.30;1.00;;;;;;5119330;27;20039;-74
2023/09/21 04:06:34;;;;;;;0.10;0.10;;;17.30;1.00;;;;;;5124263;27;20415;-73
2023/09/21 04:09:01;;;;;;;0.32;0.32;;;17.40;1.00;;;;;;5132682;27;20058;-73
2023/09/21 04:11:28;;;;;;;0.00;0.00;;;17.50;1.00;;;;;;5123461;27;20059;-73
2023/09/21 04:13:54;;;;;;;0.20;0.20;;;17.50;99.90;;;;;;5114329;27;20581;-73
2023/09/21 04:16:20;;;;;;;0.55;0.45;;;17.40;99.90;;;;;;5127335;27;20043;-73
2023/09/21 04:18:46;;;;;;;1.67;0.55;;;17.40;99.90;;;;;;5127368;27;20039;-73
2023/09/21 04:21:11;;;;;;;0.20;0.20;;;17.40;99.90;;;;;;5126155;27;20039;-73
2023/09/21 04:23:37;;;;;;;0.95;0.45;;;17.50;99.90;;;;;;5127270;27;20507;-73
2023/09/21 04:26:04;;;;;;;0.15;0.15;;;17.50;99.90;;;;;;5125878;27;20065;-74
2023/09/21 04:28:30;;;;;;;0.00;0.00;;;17.40;99.90;;;;;;5125968;27;20089;-74
2023/09/21 04:30:59;;;;;;;0.95;0.20;;;17.50;99.90;;;;;;5123705;27;20082;-73
2023/09/21 04:33:24;;;;;;;0.00;0.00;;;17.60;99.90;;;;;;5122941;27;20088;-73
2023/09/21 04:35:50;;;;;;;0.47;0.15;;;17.80;99.90;;;;;;5115336;27;20052;-73
2023/09/21 04:38:16;;;;;;;0.15;0.10;;;17.80;99.90;;;;;;5129435;27;20400;-74
2023/09/21 04:40:42;;;;;;;1.17;0.30;;;17.70;99.90;;;;;;5120139;27;20540;-73
2023/09/21 04:43:08;;;;;;;0.00;0.00;;;17.60;99.90;;;;;;5126499;27;20039;-73
2023/09/21 04:45:34;;;;;;;0.20;0.20;;;17.60;99.90;;;;;;5126707;27;20046;-73
2023/09/21 04:48:03;;;;;;;0.85;0.43;;;17.60;99.90;;;;;;5123725;27;20396;-73
2023/09/21 04:50:29;;;;;;;0.30;0.30;;;17.70;99.90;;;;;;5121824;27;20449;-73
2023/09/21 04:52:54;;;;;;;0.28;0.28;;;17.70;99.90;;;;;;5123003;27;20054;-73
2023/09/21 04:55:20;;;;;;;0.00;0.00;;;17.60;99.90;;;;;;5125590;27;20510;-73
2023/09/21 04:57:46;;;;;;;0.10;0.10;;;17.60;99.90;;;;;;5125498;27;20036;-73
2023/09/21 05:00:13;;;;;;;0.10;0.10;;;17.50;99.90;;;;;;5120831;27;20072;-73
2023/09/21 05:02:39;;;;;;;0.32;0.25;;;17.60;99.90;;;;;;5122245;27;20050;-73
2023/09/21 05:05:05;;;;;;;0.17;0.05;;;17.80;99.90;;;;;;5123077;27;20118;-73
2023/09/21 05:07:31;;;;;;;0.13;0.13;;;17.60;99.90;;;;;;5125256;27;20492;-73
2023/09/21 05:09:57;;;;;;;3.58;1.17;;;17.60;99.90;;;;;;5125042;27;20039;-73
2023/09/21 05:12:23;;;;;;;0.10;0.10;;;17.70;99.90;;;;;;5118951;27;20507;-73
2023/09/21 05:14:50;;;;;;;0.22;0.22;;;17.50;99.90;;;;;;5122472;27;20358;-73
2023/09/21 05:17:16;;;;;;;0.17;0.17;;;17.50;99.90;;;;;;5122316;27;20040;-73
2023/09/21 05:19:42;;;;;;;0.20;0.20;;;17.50;99.90;;;;;;5124234;27;20100;-73
2023/09/21 05:22:09;;;;;;;0.85;0.68;;;17.50;99.90;;;;;;5123128;27;20040;-73
2023/09/21 05:24:36;;;;;;;0.00;0.00;;;17.70;99.90;;;;;;5124007;27;20048;-73
2023/09/21 05:27:04;;;;;;;0.00;0.00;;;17.80;99.90;;;;;;5124930;27;20110;-73
2023/09/21 05:29:30;;;;;;;0.35;0.30;;;17.80;99.90;;;;;;5123775;27;20043;-73
2023/09/21 05:31:56;;;;;;;0.88;0.43;;;17.90;99.90;;;;;;5121040;27;20043;-73
2023/09/21 05:34:24;;;;;;;0.30;0.30;;;18.00;99.90;;;;;;5121978;28;20477;-73
2023/09/21 05:36:54;;;;;;;0.20;0.20;;;18.10;99.90;;;;;;5123027;27;20048;-72
2023/09/21 05:39:20;;;;;;;1.45;0.45;;;18.30;99.90;;;;;;5125002;27;20042;-73
2023/09/21 05:41:46;;;;;;;0.00;0.00;;;18.50;99.90;;;;;;5123029;27;20039;-73
2023/09/21 05:44:12;;;;;;;0.03;0.03;;;18.50;99.90;;;;;;5121616;28;20036;-73
2023/09/21 05:46:41;;;;;;;0.00;0.00;;;18.50;99.90;;;;;;5121526;28;20039;-73
2023/09/21 05:49:11;;;;;;;0.60;0.57;;;18.60;99.90;;;;;;5124540;28;20032;-73
2023/09/21 05:51:39;;;;;;;2.00;0.75;;;18.60;99.90;;;;;;5128989;27;20047;-73
2023/09/21 05:54:05;;;;;;;0.00;0.00;;;18.60;99.90;;;;;;5126882;27;20092;-73
2023/09/21 05:56:33;;;;;;;0.10;0.10;;;18.70;99.90;;;;;;5125833;27;20467;-73
2023/09/21 05:59:04;;;;;;;0.00;0.00;;;18.80;99.90;;;;;;5125756;27;20074;-73
2023/09/21 06:01:31;;;;;;;0.13;0.13;;;18.80;99.90;;;;;;5129180;27;20429;-73
2023/09/21 06:03:57;;;;;;;0.20;0.20;;;18.90;99.90;;;;;;5129157;27;20388;-73
2023/09/21 06:06:25;;;;;;;1.15;0.30;;;19.10;99.90;;;;;;5125620;27;20071;-73
2023/09/21 06:08:51;;;;;;;1.38;0.32;;;19.10;99.90;;;;;;5124920;27;20051;-73
2023/09/21 06:11:16;;;;;;;1.85;0.17;;;19.20;99.90;;;;;;5126972;27;20118;-73
2023/09/21 06:13:42;;;;;;;0.10;0.10;;;19.20;99.90;;;;;;5128701;27;20046;-73
2023/09/21 06:16:08;;;;;;;0.00;0.00;;;19.20;99.90;;;;;;5120670;27;20507;-73
2023/09/21 06:18:34;;;;;;;0.88;0.80;;;19.30;99.90;;;;;;5128412;27;20031;-73
2023/09/21 06:21:01;;;;;;;0.00;0.00;;;19.20;99.90;;;;;;5128753;27;20039;-73
2023/09/21 06:23:27;;;;;;;0.08;0.08;;;19.20;99.90;;;;;;5127145;27;20130;-73
2023/09/21 06:25:54;;;;;;;0.25;0.20;;;19.10;99.90;;;;;;5126163;27;20114;-73
2023/09/21 06:28:21;;;;;;;0.00;0.00;;;19.10;99.90;;;;;;5125280;27;20053;-73
2023/09/21 06:30:47;;;;;;;0.10;0.10;;;19.20;99.90;;;;;;5125424;27;20079;-73
2023/09/21 06:33:13;;;;;;;0.00;0.00;;;19.20;99.90;;;;;;5125378;27;20733;-73
2023/09/21 06:35:40;;;;;;;0.00;0.00;;;19.20;99.90;;;;;;5125860;27;20043;-73
2023/09/21 06:38:06;;;;;;;0.10;0.10;;;19.30;99.90;;;;;;5128394;27;20088;-73
2023/09/21 06:40:36;;;;;;;0.00;0.00;;;19.20;99.90;;;;;;5128183;27;20027;-73
2023/09/21 06:43:05;;;;;;;0.00;0.00;;;19.30;99.90;;;;;;5117006;27;20053;-73
2023/09/21 06:45:32;;;;;;;0.00;0.00;;;19.30;99.90;;;;;;5124402;27;20067;-73
2023/09/21 06:48:01;;;;;;;0.63;0.35;;;19.20;99.90;;;;;;5127082;27;20459;-73
2023/09/21 06:50:27;;;;;;;0.20;0.20;;;19.30;99.90;;;;;;5128085;27;20476;-73
2023/09/21 06:52:53;;;;;;;0.30;0.30;;;19.30;99.90;;;;;;5126754;27;20043;-73
2023/09/21 06:55:18;;;;;;;0.80;0.47;;;19.20;99.90;;;;;;5124010;27;20092;-73
2023/09/21 06:57:44;;;;;;;0.57;0.20;;;19.20;99.90;;;;;;5124888;27;20139;-73
2023/09/21 07:00:10;;;;;;;0.20;0.20;;;18.90;99.90;;;;;;5127107;27;20039;-73
2023/09/21 07:02:36;;;;;;;0.00;0.00;;;18.60;99.90;;;;;;5127653;27;20058;-73
2023/09/21 07:05:02;;;;;;;0.75;0.55;;;18.80;99.90;;;;;;5126430;27;20500;-73
2023/09/21 07:07:29;;;;;;;0.05;0.05;;;18.80;99.90;;;;;;5120295;27;20039;-72
2023/09/21 07:09:55;;;;;;;0.00;0.00;;;18.90;99.90;;;;;;5123996;27;20087;-73
2023/09/21 07:12:24;;;;;;;0.80;0.35;;;18.90;99.90;;;;;;5122773;27;20134;-73
2023/09/21 07:14:50;;;;;;;0.32;0.22;;;18.90;99.90;;;;;;5124226;27;20047;-73
2023/09/21 07:17:16;;;;;;;0.00;0.00;;;18.90;99.90;;;;;;5127080;27;20058;-73
2023/09/21 07:19:42;;;;;;;0.30;0.20;;;18.70;99.90;;;;;;5109924;27;20113;-73
2023/09/21 07:22:08;;;;;;;4.38;0.75;;;18.40;99.90;;;;;;5116591;27;20118;-73
2023/09/21 07:24:33;;;;;;;0.10;0.10;;;18.20;1.00;;;;;;5122435;27;20085;-73
2023/09/21 07:27:00;;;;;;;0.80;0.43;;;18.00;10.20;;;;;;5124289;27;20092;-73
2023/09/21 07:29:26;;;;;;;0.13;0.13;;;17.90;99.90;;;;;;5123636;27;20161;-73
2023/09/21 07:31:52;;;;;;;0.13;0.13;;;17.80;99.90;;;;;;5120948;27;20073;-73
2023/09/21 07:34:19;;;;;;;0.00;0.00;;;17.80;1.00;;;;;;5115851;27;20096;-74
2023/09/21 07:36:46;;;;;;;0.20;0.00;;;17.90;1.00;;;;;;5103541;27;20139;-74
2023/09/21 07:39:16;;;;;;;0.00;0.00;;;18.00;99.90;;;;;;5120116;27;20047;-74
2023/09/21 07:41:42;;;;;;;0.45;0.20;;;17.80;99.90;;;;;;5120857;27;20044;-74
2023/09/21 07:44:08;;;;;;;0.00;0.00;;;17.80;61.90;;;;;;5121495;27;20108;-73
2023/09/21 07:46:36;;;;;;;1.00;0.65;;;17.70;99.90;;;;;;5123491;27;20135;-74
2023/09/21 07:49:02;;;;;;;0.85;0.40;;;17.70;1.00;;;;;;5123270;27;20043;-73
2023/09/21 07:51:28;;;;;;;0.82;0.47;;;17.80;99.90;;;;;;5123885;27;20055;-74
2023/09/21 07:53:54;;;;;;;0.22;0.20;;;17.80;99.90;;;;;;5102899;27;20043;-73
2023/09/21 07:56:19;;;;;;;0.10;0.10;;;18.00;1.00;;;;;;5122101;27;20031;-74
2023/09/21 07:58:45;;;;;;;0.82;0.43;;;18.30;99.90;;;;;;5119293;27;20462;-73
2023/09/21 08:01:11;;;;;;;3.22;0.45;;;18.50;99.90;;;;;;5122899;27;20059;-73
2023/09/21 08:03:37;;;;;;;0.65;0.30;;;18.70;1.00;;;;;;5122090;27;20487;-74
2023/09/21 08:06:03;;;;;;;0.08;0.08;;;18.80;99.90;;;;;;5121138;27;20088;-73
2023/09/21 08:08:28;;;;;;;0.08;0.08;;;18.90;99.90;;;;;;5123673;27;20039;-73
2023/09/21 08:10:54;;;;;;;0.00;0.00;;;18.80;99.90;;;;;;5113909;27;20047;-74
2023/09/21 08:13:21;;;;;;;0.45;0.45;;;18.60;99.90;;;;;;5119295;27;20114;-73
2023/09/21 08:15:46;;;;;;;1.08;0.60;;;18.60;99.90;;;;;;5119163;27;20071;-73
2023/09/21 08:18:12;;;;;;;0.35;0.20;;;18.40;1.00;;;;;;5118090;27;20043;-74
2023/09/21 08:20:39;;;;;;;1.20;0.63;;;18.30;99.90;;;;;;5121194;27;20047;-74
2023/09/21 08:23:06;;;;;;;0.00;0.00;;;18.20;99.90;;;;;;5121502;27;20448;-73
2023/09/21 08:25:34;;;;;;;0.20;0.20;;;18.40;65.30;;;;;;5113768;27;20039;-73
2023/09/21 08:28:00;;;;;;;0.57;0.22;;;18.50;99.90;;;;;;5121896;27;20526;-73
2023/09/21 08:30:26;;;;;;;1.45;0.57;;;18.40;99.90;;;;;;5121264;27;20038;-74
2023/09/21 08:32:52;;;;;;;0.55;0.43;;;18.10;99.90;;;;;;5118512;27;20051;-74
2023/09/21 08:35:18;;;;;;;0.17;0.17;;;18.00;99.90;;;;;;5116887;27;20043;-73
2023/09/21 08:37:43;;;;;;;0.15;0.15;;;18.00;99.90;;;;;;5119696;27;20046;-74
2023/09/21 08:40:10;;;;;;;0.20;0.20;;;17.80;27.40;;;;;;5116037;27;20447;-73
2023/09/21 08:42:36;;;;;;;0.00;0.00;;;17.90;78.90;;;;;;5120480;27;20136;-74
2023/09/21 08:45:09;;;;;;;0.05;0.05;;;17.90;99.90;;;;;;5122307;27;20492;-74
2023/09/21 08:47:37;;;;;;;0.25;0.10;;;17.80;99.90;;;;;;5114546;27;20123;-74
2023/09/21 08:50:03;;;;;;;0.20;0.20;;;17.70;99.90;;;;;;5111507;27;20416;-74
2023/09/21 08:52:33;;;;;;;0.15;0.10;;;17.70;99.90;;;;;;5120436;27;20404;-74
2023/09/21 08:54:59;;;;;;;0.30;0.22;;;17.60;48.10;;;;;;5120239;27;20518;-74
2023/09/21 08:57:25;;;;;;;0.00;0.00;;;17.50;99.90;;;;;;5119172;27;20043;-74
2023/09/21 08:59:55;;;;;;;2.17;1.08;;;17.50;99.90;;;;;;5119248;27;20458;-75
2023/09/21 09:02:23;;;;;;;0.52;0.45;;;17.40;99.90;;;;;;5110526;27;20048;-75
2023/09/21 09:04:50;;;;;;;0.05;0.05;;;17.40;99.90;;;;;;5110184;27;20054;-75
2023/09/21 09:07:16;;;;;;;0.32;0.15;;;17.30;99.90;;;;;;5119725;27;20070;-75
2023/09/21 09:09:42;;;;;;;0.95;0.15;;;17.30;1.00;;;;;;5119229;27;20480;-76
2023/09/21 09:12:23;;;;;;;0.13;0.13;;;17.10;99.90;;;;;;5119048;27;20064;-77
2023/09/21 09:14:57;;;;;;;0.00;0.00;;;17.10;99.90;;;;;;5113542;27;20036;-76
2023/09/21 09:17:30;;;;;;;1.30;0.80;;;17.00;99.90;;;;;;5120999;27;20050;-75
2023/09/21 09:19:57;;;;;;;0.52;0.45;;;17.00;99.90;;;;;;5112696;27;20036;-75
2023/09/21 09:22:23;;;;;;;0.00;0.00;;;16.90;1.00;;;;;;5119264;27;20044;-75
2023/09/21 09:24:53;;;;;;;1.10;0.38;;;16.90;99.90;;;;;;5121347;27;20047;-75
2023/09/21 09:27:19;;;;;;;0.25;0.25;;;16.90;1.00;;;;;;5118433;27;20562;-74
2023/09/21 09:29:50;;;;;;;0.65;0.43;;;16.80;99.90;;;;;;5117198;27;20043;-75
2023/09/21 09:32:18;;;;;;;0.30;0.30;;;16.80;99.90;;;;;;5118136;27;20112;-75
2023/09/21 09:34:46;;;;;;;0.30;0.20;;;16.80;99.90;;;;;;5120871;27;20043;-75
2023/09/21 09:37:15;;;;;;;2.25;0.20;;;16.80;99.90;;;;;;5121621;27;20167;-75
2023/09/21 09:39:44;;;;;;;0.03;0.03;;;16.90;99.90;;;;;;5118605;27;20051;-75
2023/09/21 09:42:13;;;;;;;0.20;0.20;;;16.80;98.60;;;;;;5100889;27;20046;-74
2023/09/21 09:44:44;;;;;;;1.02;0.65;;;16.80;1.00;;;;;;5119154;27;20046;-74
2023/09/21 09:47:14;;;;;;;1.15;0.52;;;16.80;1.00;;;;;;5121909;27;20157;-74
2023/09/21 09:49:47;;;;;;;0.10;0.10;;;16.80;99.90;;;;;;5121197;27;20039;-74
2023/09/21 09:52:18;;;;;;;0.43;0.38;;;16.70;99.90;;;;;;5116272;28;20054;-74
2023/09/21 09:54:47;;;;;;;0.32;0.32;;;16.80;99.90;;;;;;5118600;28;20099;-74
2023/09/21 09:57:13;;;;;;;0.17;0.17;;;16.70;99.90;;;;;;5110127;28;20382;-74
2023/09/21 09:59:41;;;;;;;0.17;0.13;;;16.60;99.90;;;;;;5123211;28;20445;-75
2023/09/21 10:02:17;;;;;;;0.20;0.10;;;16.70;99.90;;;;;;5119573;27;20519;-75
2023/09/21 10:04:46;;;;;;;0.00;0.00;;;16.70;99.90;;;;;;5118113;28;20515;-74
2023/09/21 10:07:16;;;;;;;0.20;0.20;;;16.60;99.90;;;;;;5119922;28;20061;-74
2023/09/21 10:09:43;;;;;;;0.00;0.00;;;16.40;99.90;;;;;;5110822;28;20080;-74
2023/09/21 10:12:11;;;;;;;0.00;0.00;;;16.20;99.90;;;;;;5118770;28;20043;-74
2023/09/21 10:14:43;;;;;;;0.00;0.00;;;16.10;99.90;;;;;;5121163;27;20096;-74
2023/09/21 10:17:10;;;;;;;0.00;0.00;;;16.00;99.90;;;;;;5120878;27;20385;-74
2023/09/21 10:19:38;;;;;;;0.80;0.47;;;15.90;99.90;;;;;;5117868;28;20503;-74
2023/09/21 10:22:36;;;;;;;0.20;0.15;;;15.90;1.00;;;;;;5097306;28;20044;-74
2023/09/21 10:25:03;;;;;;;0.00;0.00;;;15.70;1.00;;;;;;5072470;27;20063;-74
2023/09/21 10:27:33;;;;;;;0.00;0.00;;;15.70;1.00;;;;;;5118539;27;20088;-74
2023/09/21 10:30:06;;;;;;;0.10;0.10;;;15.70;99.90;;;;;;5120404;28;20050;-74
2023/09/21 10:32:48;;;;;;;0.00;0.00;;;15.50;99.90;;;;;;5120264;27;20511;-74
2023/09/21 10:35:42;;;;;;;0.17;0.05;;;15.60;1.00;;;;;;5117184;28;20048;-74
2023/09/21 10:38:17;;;;;;;0.00;0.00;;;15.50;99.90;;;;;;5111711;27;20130;-74
2023/09/21 10:40:43;;;;;;;0.00;0.00;;;15.40;99.90;;;;;;5123617;27;20035;-74
2023/09/21 10:43:37;;;;;;;0.00;0.00;;;15.40;99.90;;;;;;5121763;27;20039;-74
2023/09/21 10:46:06;;;;;;;0.00;0.00;;;15.30;99.90;;;;;;5105064;27;20454;-74
2023/09/21 10:48:32;;;;;;;0.13;0.13;;;15.20;99.90;;;;;;5126164;27;20047;-74
2023/09/21 10:50:58;;;;;;;0.00;0.00;;;15.30;99.90;;;;;;5124302;27;20036;-74
2023/09/21 10:53:23;;;;;;;0.00;0.00;;;15.20;99.90;;;;;;5124735;27;20480;-74
2023/09/21 10:55:50;;;;;;;0.05;0.05;;;15.20;99.90;;;;;;5115761;27;20035;-74
2023/09/21 10:58:18;;;;;;;0.00;0.00;;;15.30;1.00;;;;;;5122600;27;20043;-74
2023/09/21 11:00:44;;;;;;;0.00;0.00;;;15.40;1.00;;;;;;5117406;27;20100;-74
2023/09/21 11:03:13;;;;;;;0.00;0.00;;;15.40;12.50;;;;;;5121369;27;20039;-74
2023/09/21 11:05:39;;;;;;;0.00;0.00;;;15.60;36.90;;;;;;5120928;27;20043;-74
2023/09/21 11:08:06;;;;;;;0.00;0.00;;;15.70;41.70;;;;;;5121734;27;20047;-74
2023/09/21 11:10:33;;;;;;;0.00;0.00;;;15.70;22.60;;;;;;5124660;27;20042;-74
2023/09/21 11:12:58;;;;;;;0.47;0.10;;;15.70;1.00;;;;;;5124124;27;20450;-74
2023/09/21 11:15:25;;;;;;;0.20;0.20;;;15.70;1.00;;;;;;5120423;27;20039;-74
2023/09/21 11:17:52;;;;;;;0.00;0.00;;;15.70;99.90;;;;;;5123420;27;20088;-74
2023/09/21 11:20:19;;;;;;;0.00;0.00;;;15.90;99.90;;;;;;5123901;27;20122;-74
2023/09/21 11:22:46;;;;;;;0.00;0.00;;;15.70;99.90;;;;;;5120687;27;20549;-74
2023/09/21 11:25:14;;;;;;;0.45;0.30;;;15.80;99.90;;;;;;5120157;27;20122;-74
2023/09/21 11:27:43;;;;;;;0.00;0.00;;;15.80;99.90;;;;;;5122714;27;20035;-74
2023/09/21 11:30:11;;;;;;;0.10;0.10;;;15.90;99.90;;;;;;5115794;27;20093;-74
2023/09/21 11:32:50;;;;;;;0.10;0.10;;;15.90;80.40;;;;;;5111163;27;20039;-74
2023/09/21 11:35:17;;;;;;;0.40;0.32;;;15.90;35.50;;;;;;5117256;27;20051;-74
2023/09/21 11:37:44;;;;;;;0.00;0.00;;;15.70;1.00;;;;;;5122651;27;20052;-74
2023/09/21 11:40:13;;;;;;;0.00;0.00;;;15.60;1.00;;;;;;5123925;27;20078;-74
2023/09/21 11:42:43;;;;;;;0.00;0.00;;;15.50;1.00;;;;;;5122856;27;20082;-74
2023/09/21 11:45:16;;;;;;;0.00;0.00;;;16.30;99.90;;;;;;5120201;27;20450;-74
2023/09/21 11:47:50;;;;;;;0.22;0.15;;;15.70;99.90;;;;;;5110572;27;20040;-74
2023/09/21 11:50:20;;;;;;;0.17;0.10;;;15.80;99.90;;;;;;5123974;27;20035;-74
2023/09/21 11:52:50;;;;;;;0.25;0.25;;;15.90;99.90;;;;;;5122898;27;20412;-74
2023/09/21 11:55:15;;;;;;;0.00;0.00;;;16.00;99.90;;;;;;5119749;27;20519;-74
2023/09/21 11:57:42;;;;;;;0.00;0.00;;;16.10;99.90;;;;;;5120166;27;20051;-74
2023/09/21 12:00:13;;;;;;;1.17;0.70;;;16.10;1.00;;;;;;5120683;27;20068;-74
2023/09/21 12:02:40;;;;;;;0.00;0.00;;;16.10;99.90;;;;;;5123408;27;20069;-74
2023/09/21 12:05:10;;;;;;;0.00;0.00;;;16.10;99.90;;;;;;5121178;27;20051;-74
2023/09/21 12:07:37;;;;;;;0.50;0.15;;;16.10;99.90;;;;;;5119763;27;20435;-74
2023/09/21 12:10:04;;;;;;;0.00;0.00;;;16.10;99.90;;;;;;5120465;27;20071;-74
2023/09/21 12:12:30;;;;;;;0.00;0.00;;;16.00;99.90;;;;;;5122727;27;20054;-74
2023/09/21 12:14:55;;;;;;;0.00;0.00;;;16.10;99.90;;;;;;5121098;27;20051;-74
2023/09/21 12:17:21;;;;;;;0.00;0.00;;;15.90;16.30;;;;;;5120824;27;20404;-74
2023/09/21 12:19:46;;;;;;;0.00;0.00;;;15.80;99.90;;;;;;5115937;27;20043;-74
2023/09/21 12:22:12;;;;;;;0.20;0.20;;;15.70;99.90;;;;;;5122669;27;20328;-74
2023/09/21 12:24:38;;;;;;;0.00;0.00;;;15.60;99.90;;;;;;5114190;27;20084;-74
2023/09/21 12:27:06;;;;;;;3.25;0.68;;;15.50;99.90;;;;;;5122732;27;20485;-74
2023/09/21 12:29:36;;;;;;;0.20;0.13;;;15.60;99.90;;;;;;5122689;27;20051;-74
2023/09/21 12:32:05;;;;;;;0.00;0.00;;;15.60;99.90;;;;;;5122049;27;20082;-74
2023/09/21 12:34:32;;;;;;;0.00;0.00;;;15.70;99.90;;;;;;5109619;27;20451;-74
2023/09/21 12:36:59;;;;;;;0.00;0.00;;;15.70;99.90;;;;;;5105576;27;20073;-74
2023/09/21 12:39:24;;;;;;;0.00;0.00;;;15.70;99.90;;;;;;5104577;27;20044;-74
2023/09/21 12:41:51;;;;;;;0.05;0.05;;;16.40;99.90;;;;;;5106722;27;20039;-74
2023/09/21 12:44:17;;;;;;;0.00;0.00;;;15.90;99.90;;;;;;5103127;27;20028;-74
2023/09/21 12:46:42;;;;;;;0.00;0.00;;;16.00;99.90;;;;;;5103792;28;20093;-74
2023/09/21 12:49:08;;;;;;;0.00;0.00;;;16.20;99.90;;;;;;5108201;27;20044;-74